Time;durP1;ratioP1;P1;durP2;ratioP2;P2;SDS_P1;SDS_P2;PMS_P1;PMS_P2;Temp;Humidity;BMP_temperature;BMP_pressure;BME280_temperature;BME280_humidity;BME280_pressure;Samples;Min_cycle;Max_cycle;Signal;HPM_P1;HPM_P2
2021/09/25 00:00:06;;;;;;;6.68;5.00;;;;;;;;;;5078584;28;20032;-81
2021/09/25 00:02:31;;;;;;;9.82;5.20;;;;;;;;;;5042578;28;20056;-81
2021/09/25 00:04:57;;;;;;;8.27;6.18;;;;;;;;;;5038843;28;20021;-81
2021/09/25 00:07:22;;;;;;;7.60;6.28;;;;;;;;;;5039115;28;20060;-81
2021/09/25 00:09:50;;;;;;;6.85;5.32;;;;;;;;;;5038542;28;20048;-81
2021/09/25 00:12:17;;;;;;;7.47;6.28;;;;;;;;;;5068180;28;20059;-81
2021/09/25 00:14:43;;;;;;;6.43;5.25;;;;;;;;;;5078105;28;20444;-81
2021/09/25 00:17:11;;;;;;;7.00;5.25;;;;;;;;;;5078087;28;20037;-81
2021/09/25 00:19:37;;;;;;;7.93;5.10;;;;;;;;;;5076979;28;20036;-82
2021/09/25 00:22:04;;;;;;;7.18;5.68;;;;;;;;;;5077639;28;20036;-82
2021/09/25 00:24:29;;;;;;;7.85;6.15;;;;;;;;;;5075823;28;20470;-82
2021/09/25 00:26:55;;;;;;;8.60;6.32;;;;;;;;;;5077291;28;20035;-81
2021/09/25 00:29:20;;;;;;;9.60;5.85;;;;;;;;;;5076877;28;20032;-82
2021/09/25 00:31:46;;;;;;;13.23;6.43;;;;;;;;;;5075499;28;20041;-81
2021/09/25 00:34:13;;;;;;;10.13;6.13;;;;;;;;;;5074986;28;20052;-81
2021/09/25 00:36:38;;;;;;;7.53;6.03;;;;;;;;;;5076009;28;20048;-81
2021/09/25 00:39:04;;;;;;;10.48;5.85;;;;;;;;;;5070001;28;20037;-82
2021/09/25 00:41:29;;;;;;;8.30;5.43;;;;;;;;;;5061274;28;20124;-82
2021/09/25 00:43:54;;;;;;;12.40;6.53;;;;;;;;;;5060868;28;20045;-82
2021/09/25 00:46:21;;;;;;;8.02;5.97;;;;;;;;;;5060983;28;20037;-82
2021/09/25 00:48:47;;;;;;;13.10;6.20;;;;;;;;;;5060681;28;20064;-81
2021/09/25 00:51:12;;;;;;;8.38;6.05;;;;;;;;;;5061059;28;20033;-82
2021/09/25 00:53:39;;;;;;;9.88;7.03;;;;;;;;;;5061510;28;20041;-82
2021/09/25 00:56:06;;;;;;;13.38;6.10;;;;;;;;;;5061391;28;20040;-82
2021/09/25 00:58:32;;;;;;;11.43;6.72;;;;;;;;;;5060509;28;20119;-83
2021/09/25 01:00:57;;;;;;;15.10;6.60;;;;;;;;;;5060111;28;20060;-83
2021/09/25 01:03:23;;;;;;;8.75;6.35;;;;;;;;;;5056981;28;20036;-83
2021/09/25 01:05:48;;;;;;;11.43;6.15;;;;;;;;;;5039967;28;20479;-84
2021/09/25 01:08:14;;;;;;;8.43;6.10;;;;;;;;;;5040615;28;20037;-84
2021/09/25 01:10:40;;;;;;;8.85;6.38;;;;;;;;;;5040151;28;20037;-83
2021/09/25 01:13:06;;;;;;;6.70;6.00;;;;;;;;;;5055345;28;20041;-83
2021/09/25 01:15:31;;;;;;;8.73;5.47;;;;;;;;;;5038402;28;20041;-83
2021/09/25 01:17:57;;;;;;;10.98;5.60;;;;;;;;;;5039578;28;20088;-83
2021/09/25 01:20:23;;;;;;;7.30;5.03;;;;;;;;;;5039333;28;20033;-83
2021/09/25 01:22:49;;;;;;;6.07;5.00;;;;;;;;;;5038972;28;20419;-83
2021/09/25 01:25:14;;;;;;;9.00;5.35;;;;;;;;;;5038584;28;20033;-83
2021/09/25 01:27:40;;;;;;;7.00;5.50;;;;;;;;;;5038513;28;20124;-83
2021/09/25 01:30:10;;;;;;;6.18;5.43;;;;;;;;;;5037408;28;20038;-83
2021/09/25 01:32:36;;;;;;;8.02;5.47;;;;;;;;;;5037114;28;20123;-82
2021/09/25 01:35:02;;;;;;;8.13;5.30;;;;;;;;;;5038348;28;20084;-83
2021/09/25 01:37:27;;;;;;;6.28;5.32;;;;;;;;;;5038630;28;20033;-83
2021/09/25 01:39:52;;;;;;;7.70;5.55;;;;;;;;;;5055388;28;20067;-83
2021/09/25 01:42:18;;;;;;;6.93;4.97;;;;;;;;;;5078090;28;20033;-82
2021/09/25 01:44:43;;;;;;;12.40;5.60;;;;;;;;;;5076810;28;20453;-82
2021/09/25 01:47:08;;;;;;;7.63;5.03;;;;;;;;;;5059579;28;20028;-83
2021/09/25 01:49:34;;;;;;;9.98;5.70;;;;;;;;;;5080009;28;20047;-82
2021/09/25 01:51:59;;;;;;;7.43;5.00;;;;;;;;;;5081398;28;20040;-82
2021/09/25 01:54:25;;;;;;;6.95;5.57;;;;;;;;;;5080858;28;20055;-83
2021/09/25 01:56:50;;;;;;;10.45;6.00;;;;;;;;;;5080068;28;20044;-82
2021/09/25 01:59:15;;;;;;;7.18;5.65;;;;;;;;;;5079025;28;20486;-83
2021/09/25 02:01:41;;;;;;;13.38;6.22;;;;;;;;;;5079375;28;20033;-83
2021/09/25 02:04:06;;;;;;;7.90;5.07;;;;;;;;;;5080518;28;20078;-83
2021/09/25 02:06:32;;;;;;;10.70;5.57;;;;;;;;;;5079988;28;20478;-82
2021/09/25 02:08:58;;;;;;;14.95;6.28;;;;;;;;;;5061638;28;20037;-83
2021/09/25 02:11:24;;;;;;;12.20;6.57;;;;;;;;;;5040718;28;20033;-82
2021/09/25 02:13:50;;;;;;;9.48;5.32;;;;;;;;;;5039738;28;20068;-82
2021/09/25 02:16:16;;;;;;;11.90;6.20;;;;;;;;;;5040069;28;20445;-82
2021/09/25 02:18:42;;;;;;;8.57;5.40;;;;;;;;;;5040279;28;20048;-82
2021/09/25 02:21:07;;;;;;;7.45;4.60;;;;;;;;;;5039342;28;20045;-82
2021/09/25 02:23:33;;;;;;;7.03;5.05;;;;;;;;;;5037766;28;20044;-82
2021/09/25 02:26:00;;;;;;;6.18;4.78;;;;;;;;;;5039796;28;20068;-82
2021/09/25 02:28:26;;;;;;;12.73;5.10;;;;;;;;;;5039507;28;20484;-82
2021/09/25 02:30:51;;;;;;;13.90;5.65;;;;;;;;;;5038034;28;20051;-82
2021/09/25 02:33:17;;;;;;;9.70;5.13;;;;;;;;;;5039952;28;20132;-82
2021/09/25 02:35:42;;;;;;;11.18;5.55;;;;;;;;;;5039707;28;20064;-83
2021/09/25 02:38:08;;;;;;;8.23;5.63;;;;;;;;;;5044133;28;20044;-83
2021/09/25 02:40:35;;;;;;;16.90;5.57;;;;;;;;;;5062922;28;20037;-83
2021/09/25 02:43:00;;;;;;;9.88;5.90;;;;;;;;;;5062571;28;20395;-83
2021/09/25 02:45:25;;;;;;;9.15;5.07;;;;;;;;;;5061966;28;20041;-83
2021/09/25 02:47:51;;;;;;;10.90;5.50;;;;;;;;;;5043858;28;20033;-82
2021/09/25 02:50:17;;;;;;;9.88;6.03;;;;;;;;;;5040882;28;20124;-82
2021/09/25 02:52:42;;;;;;;8.50;4.90;;;;;;;;;;5039979;28;20396;-82
2021/09/25 02:55:09;;;;;;;6.32;5.45;;;;;;;;;;5041195;28;20055;-83
2021/09/25 02:57:34;;;;;;;13.82;5.00;;;;;;;;;;5038857;28;20033;-83
2021/09/25 03:00:00;;;;;;;5.97;4.75;;;;;;;;;;5038457;28;20174;-83
2021/09/25 03:02:25;;;;;;;9.00;4.75;;;;;;;;;;5039703;28;20037;-83
2021/09/25 03:04:51;;;;;;;6.80;5.15;;;;;;;;;;5039702;28;20044;-82
2021/09/25 03:07:17;;;;;;;5.03;4.10;;;;;;;;;;5039480;28;20052;-83
2021/09/25 03:09:42;;;;;;;12.30;4.28;;;;;;;;;;5057850;28;20064;-83
2021/09/25 03:12:08;;;;;;;7.55;4.22;;;;;;;;;;5059568;28;20047;-82
2021/09/25 03:14:33;;;;;;;7.53;5.43;;;;;;;;;;5058310;28;20078;-82
2021/09/25 03:16:59;;;;;;;10.63;5.82;;;;;;;;;;5058528;28;20471;-83
2021/09/25 03:19:24;;;;;;;7.38;5.13;;;;;;;;;;5058149;28;20035;-83
2021/09/25 03:21:50;;;;;;;7.32;4.75;;;;;;;;;;5056421;28;20047;-82
2021/09/25 03:24:15;;;;;;;12.07;5.10;;;;;;;;;;5057707;28;20056;-83
2021/09/25 03:26:41;;;;;;;9.90;5.05;;;;;;;;;;5057361;28;20116;-83
2021/09/25 03:29:08;;;;;;;8.95;4.78;;;;;;;;;;5057699;28;20040;-83
2021/09/25 03:31:33;;;;;;;10.80;5.10;;;;;;;;;;5056361;28;20040;-82
2021/09/25 03:33:59;;;;;;;11.68;5.35;;;;;;;;;;5055843;28;20103;-82
2021/09/25 03:36:24;;;;;;;6.78;4.88;;;;;;;;;;5055817;28;20040;-82
2021/09/25 03:38:50;;;;;;;6.82;5.63;;;;;;;;;;5055853;28;20037;-82
2021/09/25 03:41:15;;;;;;;8.88;5.03;;;;;;;;;;5056960;28;20037;-83
2021/09/25 03:43:40;;;;;;;5.72;4.47;;;;;;;;;;5057215;28;20131;-82
2021/09/25 03:46:06;;;;;;;6.22;4.55;;;;;;;;;;5058555;28;20072;-82
2021/09/25 03:48:31;;;;;;;10.02;5.25;;;;;;;;;;5075402;28;20040;-82
2021/09/25 03:50:58;;;;;;;13.85;5.68;;;;;;;;;;5076596;28;20153;-83
2021/09/25 03:53:24;;;;;;;14.15;6.35;;;;;;;;;;5075598;28;20045;-82
2021/09/25 03:55:49;;;;;;;13.75;5.55;;;;;;;;;;5076572;28;20356;-82
2021/09/25 03:58:14;;;;;;;7.35;4.88;;;;;;;;;;5076016;28;20039;-82
2021/09/25 04:00:43;;;;;;;8.63;5.22;;;;;;;;;;5076991;28;20032;-82
2021/09/25 04:03:12;;;;;;;6.50;4.68;;;;;;;;;;5076693;28;20037;-83
2021/09/25 04:05:39;;;;;;;8.10;5.18;;;;;;;;;;5076916;28;20032;-82
2021/09/25 04:08:05;;;;;;;6.95;5.13;;;;;;;;;;5081556;28;20047;-83
2021/09/25 04:10:31;;;;;;;5.85;4.50;;;;;;;;;;5081060;28;20033;-83
2021/09/25 04:12:56;;;;;;;5.95;4.30;;;;;;;;;;5080621;28;20460;-83
2021/09/25 04:15:22;;;;;;;10.13;4.57;;;;;;;;;;5081594;28;20043;-83
2021/09/25 04:17:48;;;;;;;7.85;4.75;;;;;;;;;;5062507;28;20056;-83
2021/09/25 04:20:14;;;;;;;9.27;5.57;;;;;;;;;;5060366;28;20037;-83
2021/09/25 04:22:40;;;;;;;11.07;5.20;;;;;;;;;;5060471;28;20128;-83
2021/09/25 04:25:06;;;;;;;8.77;5.70;;;;;;;;;;5058999;28;20419;-82
2021/09/25 04:27:32;;;;;;;11.18;5.57;;;;;;;;;;5072351;28;20040;-82
2021/09/25 04:29:59;;;;;;;8.43;5.40;;;;;;;;;;5079712;28;20039;-82
2021/09/25 04:32:25;;;;;;;8.52;4.60;;;;;;;;;;5080093;28;20470;-82
2021/09/25 04:34:51;;;;;;;7.63;4.85;;;;;;;;;;5079626;28;20040;-82
2021/09/25 04:37:16;;;;;;;7.72;5.30;;;;;;;;;;5079210;28;20035;-82
2021/09/25 04:39:42;;;;;;;9.02;5.22;;;;;;;;;;5072425;28;20041;-83
2021/09/25 04:42:07;;;;;;;8.18;4.78;;;;;;;;;;5039424;28;20083;-82
2021/09/25 04:44:33;;;;;;;9.35;5.15;;;;;;;;;;5039245;28;20353;-82
2021/09/25 04:46:58;;;;;;;10.40;4.97;;;;;;;;;;5047156;28;20137;-82
2021/09/25 04:49:23;;;;;;;9.68;5.18;;;;;;;;;;5056831;28;20043;-83
2021/09/25 04:51:49;;;;;;;14.05;5.43;;;;;;;;;;5056754;28;20036;-83
2021/09/25 04:54:14;;;;;;;9.45;5.55;;;;;;;;;;5058840;28;20047;-83
2021/09/25 04:56:40;;;;;;;10.32;5.10;;;;;;;;;;5057913;28;20090;-83
2021/09/25 04:59:05;;;;;;;11.02;5.95;;;;;;;;;;5058186;28;20032;-83
2021/09/25 05:01:31;;;;;;;8.23;5.15;;;;;;;;;;5057381;28;20044;-83
2021/09/25 05:04:00;;;;;;;5.57;4.60;;;;;;;;;;5056602;28;20036;-83
2021/09/25 05:06:26;;;;;;;10.63;6.03;;;;;;;;;;5053406;28;20057;-83
2021/09/25 05:08:51;;;;;;;8.98;5.85;;;;;;;;;;5037493;28;20036;-83
2021/09/25 05:11:17;;;;;;;8.63;5.68;;;;;;;;;;5036565;28;20041;-83
2021/09/25 05:13:42;;;;;;;7.80;5.43;;;;;;;;;;5038185;28;20381;-83
2021/09/25 05:16:08;;;;;;;9.93;5.72;;;;;;;;;;5037034;28;20129;-82
2021/09/25 05:18:33;;;;;;;7.88;5.53;;;;;;;;;;5037744;28;20065;-82
2021/09/25 05:20:58;;;;;;;7.57;5.82;;;;;;;;;;5038050;28;20048;-83
2021/09/25 05:23:24;;;;;;;5.60;4.80;;;;;;;;;;5071273;28;20040;-84
2021/09/25 05:25:49;;;;;;;6.32;4.50;;;;;;;;;;5083095;28;20032;-84
2021/09/25 05:28:15;;;;;;;11.15;5.90;;;;;;;;;;5083822;28;20043;-84
2021/09/25 05:30:40;;;;;;;8.50;5.97;;;;;;;;;;5083273;28;20079;-83
2021/09/25 05:33:07;;;;;;;13.95;6.85;;;;;;;;;;5052124;28;20391;-83
2021/09/25 05:35:32;;;;;;;10.88;6.47;;;;;;;;;;5043755;28;20040;-83
2021/09/25 05:37:58;;;;;;;8.63;6.30;;;;;;;;;;5043239;28;20390;-84
2021/09/25 05:40:23;;;;;;;9.55;6.38;;;;;;;;;;5044574;28;20036;-84
2021/09/25 05:42:49;;;;;;;10.23;6.85;;;;;;;;;;5058162;28;20036;-83
2021/09/25 05:45:16;;;;;;;11.90;6.75;;;;;;;;;;5063838;28;20489;-82
2021/09/25 05:47:42;;;;;;;14.27;6.82;;;;;;;;;;5061769;28;20111;-85
2021/09/25 05:50:08;;;;;;;8.48;6.28;;;;;;;;;;5061389;28;20088;-80
2021/09/25 05:52:34;;;;;;;7.40;5.85;;;;;;;;;;5061353;28;20043;-80
2021/09/25 05:54:59;;;;;;;8.15;6.13;;;;;;;;;;5060948;28;20041;-80
2021/09/25 05:57:24;;;;;;;6.95;5.18;;;;;;;;;;5052792;28;20045;-80
2021/09/25 05:59:50;;;;;;;8.13;6.68;;;;;;;;;;5041099;28;20120;-80
2021/09/25 06:02:15;;;;;;;6.78;5.95;;;;;;;;;;5041018;28;20117;-81
2021/09/25 06:04:40;;;;;;;8.43;5.68;;;;;;;;;;5041452;28;20033;-80
2021/09/25 06:07:11;;;;;;;6.82;5.57;;;;;;;;;;5039935;28;20025;-81
2021/09/25 06:09:36;;;;;;;9.43;5.43;;;;;;;;;;5040762;28;20033;-79
2021/09/25 06:12:02;;;;;;;9.90;6.05;;;;;;;;;;5040569;28;20403;-79
2021/09/25 06:14:27;;;;;;;8.20;6.50;;;;;;;;;;5040399;28;20034;-80
2021/09/25 06:16:53;;;;;;;9.80;5.85;;;;;;;;;;5039906;28;20036;-78
2021/09/25 06:19:18;;;;;;;9.85;5.30;;;;;;;;;;5040154;28;20038;-80
2021/09/25 06:21:44;;;;;;;7.78;5.43;;;;;;;;;;5040180;28;20073;-79
2021/09/25 06:24:09;;;;;;;10.52;6.13;;;;;;;;;;5040200;28;20029;-81
2021/09/25 06:26:35;;;;;;;8.70;5.32;;;;;;;;;;5039762;28;20026;-80
2021/09/25 06:29:00;;;;;;;8.13;5.88;;;;;;;;;;5057687;28;20086;-79
2021/09/25 06:31:26;;;;;;;5.93;5.20;;;;;;;;;;5079547;28;20462;-79
2021/09/25 06:33:51;;;;;;;8.15;5.13;;;;;;;;;;5079288;28;20375;-80
2021/09/25 06:36:17;;;;;;;7.95;5.22;;;;;;;;;;5077658;28;20044;-79
2021/09/25 06:38:42;;;;;;;9.25;5.72;;;;;;;;;;5073057;28;20033;-79
2021/09/25 06:41:08;;;;;;;8.95;5.78;;;;;;;;;;5058907;28;20036;-79
2021/09/25 06:43:34;;;;;;;6.90;5.40;;;;;;;;;;5058850;28;20414;-80
2021/09/25 06:46:00;;;;;;;8.90;5.43;;;;;;;;;;5058610;28;20025;-80
2021/09/25 06:48:25;;;;;;;7.05;5.28;;;;;;;;;;5058975;28;20033;-81
2021/09/25 06:50:51;;;;;;;9.05;5.50;;;;;;;;;;5058662;28;20083;-82
2021/09/25 06:53:16;;;;;;;7.32;5.65;;;;;;;;;;5043191;28;20033;-81
2021/09/25 06:55:42;;;;;;;8.52;6.07;;;;;;;;;;5038515;28;20034;-81
2021/09/25 06:58:07;;;;;;;7.65;5.70;;;;;;;;;;5037190;28;20052;-79
2021/09/25 07:00:33;;;;;;;10.40;5.60;;;;;;;;;;5037307;28;20030;-81
2021/09/25 07:02:59;;;;;;;11.63;7.10;;;;;;;;;;5039432;28;20364;-80
2021/09/25 07:05:24;;;;;;;8.35;5.85;;;;;;;;;;5020997;28;20044;-79
2021/09/25 07:07:50;;;;;;;12.25;5.95;;;;;;;;;;5038381;28;20033;-79
2021/09/25 07:10:16;;;;;;;11.02;5.20;;;;;;;;;;5037937;28;20046;-80
2021/09/25 07:12:42;;;;;;;8.60;5.55;;;;;;;;;;5052326;28;20043;-81
2021/09/25 07:15:09;;;;;;;10.52;6.32;;;;;;;;;;5059916;28;20135;-80
2021/09/25 07:17:35;;;;;;;9.68;6.57;;;;;;;;;;5058826;28;20502;-79
2021/09/25 07:20:00;;;;;;;8.82;6.82;;;;;;;;;;5055871;28;20029;-78
2021/09/25 07:22:26;;;;;;;11.25;7.03;;;;;;;;;;5056707;28;20434;-78
2021/09/25 07:24:54;;;;;;;10.43;7.18;;;;;;;;;;5057035;28;20083;-77
2021/09/25 07:27:21;;;;;;;10.27;7.47;;;;;;;;;;5058890;28;20029;-79
2021/09/25 07:29:48;;;;;;;11.43;7.25;;;;;;;;;;5058236;28;20021;-80
2021/09/25 07:32:15;;;;;;;7.95;6.97;;;;;;;;;;5058882;28;20029;-79
2021/09/25 07:34:40;;;;;;;7.75;5.85;;;;;;;;;;5058512;28;20052;-84
2021/09/25 07:37:05;;;;;;;9.23;6.50;;;;;;;;;;5057152;28;20044;-80
2021/09/25 07:39:32;;;;;;;7.22;5.75;;;;;;;;;;5058634;28;20041;-82
2021/09/25 07:41:58;;;;;;;9.10;6.10;;;;;;;;;;5059441;28;20044;-81
2021/09/25 07:44:24;;;;;;;9.43;5.28;;;;;;;;;;5059619;28;20093;-80
2021/09/25 07:46:49;;;;;;;7.00;5.40;;;;;;;;;;5058550;28;20043;-79
2021/09/25 07:49:15;;;;;;;7.50;5.15;;;;;;;;;;5059964;28;20632;-81
2021/09/25 07:51:41;;;;;;;8.85;5.60;;;;;;;;;;5061122;28;20037;-82
2021/09/25 07:54:06;;;;;;;6.78;5.25;;;;;;;;;;5059385;28;20033;-79
2021/09/25 07:56:32;;;;;;;8.57;5.40;;;;;;;;;;5058934;28;20036;-80
2021/09/25 07:58:58;;;;;;;6.93;5.15;;;;;;;;;;5057623;28;20151;-80
2021/09/25 08:01:26;;;;;;;6.97;6.28;;;;;;;;;;5059121;28;20064;-81
2021/09/25 08:03:51;;;;;;;8.57;5.95;;;;;;;;;;5058512;28;20028;-82
2021/09/25 08:06:18;;;;;;;7.78;5.45;;;;;;;;;;5057976;28;20029;-82
2021/09/25 08:08:44;;;;;;;7.68;5.80;;;;;;;;;;5056879;28;20438;-80
2021/09/25 08:11:09;;;;;;;7.07;5.78;;;;;;;;;;5058404;28;20067;-80
2021/09/25 08:13:34;;;;;;;10.02;5.70;;;;;;;;;;5056991;28;20512;-79
2021/09/25 08:16:00;;;;;;;6.43;5.20;;;;;;;;;;5057634;28;20039;-80
2021/09/25 08:18:27;;;;;;;10.95;4.97;;;;;;;;;;5057633;28;20064;-82
2021/09/25 08:20:52;;;;;;;5.43;4.57;;;;;;;;;;5056973;28;20098;-80
2021/09/25 08:23:18;;;;;;;6.93;5.25;;;;;;;;;;5057328;28;20108;-81
2021/09/25 08:25:43;;;;;;;10.43;4.80;;;;;;;;;;5057534;28;20498;-80
2021/09/25 09:25:18;;;;;;;;;;;;;;;;;;5072076;27;2435217;-85
2021/09/25 09:27:44;;;;;;;8.93;4.95;;;;;;;;;;5152615;27;19911;-84
2021/09/25 09:30:11;;;;;;;7.63;4.72;;;;;;;;;;5134993;27;20042;-83
2021/09/25 09:32:41;;;;;;;8.88;4.00;;;;;;;;;;5132076;27;20073;-85
2021/09/25 09:35:16;;;;;;;5.28;4.40;;;;;;;;;;5114740;28;20103;-84
2021/09/25 09:37:45;;;;;;;7.15;4.90;;;;;;;;;;5114716;28;20031;-84
2021/09/25 09:40:10;;;;;;;6.75;4.18;;;;;;;;;;5132175;27;20035;-84
2021/09/25 09:42:42;;;;;;;5.75;4.22;;;;;;;;;;5130087;27;20024;-84
2021/09/25 09:45:07;;;;;;;4.82;3.70;;;;;;;;;;5131109;28;20472;-84
2021/09/25 09:47:43;;;;;;;5.57;3.95;;;;;;;;;;5113514;28;20038;-84
2021/09/25 09:50:08;;;;;;;5.22;4.00;;;;;;;;;;5113561;28;20096;-85
2021/09/25 09:52:34;;;;;;;9.30;4.45;;;;;;;;;;5129773;27;20047;-89
2021/09/25 09:55:00;;;;;;;6.55;4.32;;;;;;;;;;5130137;28;20120;-86
2021/09/25 09:57:25;;;;;;;8.30;4.72;;;;;;;;;;5135273;27;20032;-85
2021/09/25 09:59:50;;;;;;;13.90;8.60;;;;;;;;;;5130094;28;20515;-86
2021/09/25 10:02:19;;;;;;;12.93;5.70;;;;;;;;;;5112709;28;20035;-85
2021/09/25 10:04:45;;;;;;;8.13;4.80;;;;;;;;;;5112795;28;20027;-87
2021/09/25 10:07:13;;;;;;;6.60;4.32;;;;;;;;;;5130081;28;20114;-86
2021/09/25 10:09:40;;;;;;;7.65;4.97;;;;;;;;;;5129572;28;20104;-86
2021/09/25 10:12:11;;;;;;;5.68;3.75;;;;;;;;;;5129537;27;20036;-85
2021/09/25 10:14:40;;;;;;;6.95;4.40;;;;;;;;;;5129876;28;20567;-85
2021/09/25 10:17:09;;;;;;;6.43;4.22;;;;;;;;;;5112392;28;20035;-85
2021/09/25 10:19:36;;;;;;;5.57;3.90;;;;;;;;;;5129160;28;20401;-85
2021/09/25 10:22:13;;;;;;;6.68;4.53;;;;;;;;;;5130463;27;20074;-86
2021/09/25 10:24:44;;;;;;;6.10;4.20;;;;;;;;;;5112844;28;20048;-85
2021/09/25 10:27:10;;;;;;;6.53;4.00;;;;;;;;;;5109389;28;20044;-86
2021/09/25 10:29:44;;;;;;;8.15;4.70;;;;;;;;;;5108565;28;20032;-86
2021/09/25 10:32:17;;;;;;;8.82;4.30;;;;;;;;;;5109271;28;20853;-86
2021/09/25 10:34:56;;;;;;;7.38;4.50;;;;;;;;;;5088741;28;20032;-85
2021/09/25 10:37:21;;;;;;;6.88;4.10;;;;;;;;;;5094969;28;20028;-86
2021/09/25 10:40:11;;;;;;;4.88;3.92;;;;;;;;;;5095388;28;20491;-86
2021/09/25 11:09:05;;;;;;;6.18;3.88;;;;;;;;;;5112760;27;20413;-78
2021/09/25 11:11:32;;;;;;;8.60;4.43;;;;;;;;;;5110596;28;20490;-78
2021/09/25 11:14:01;;;;;;;7.90;3.95;;;;;;;;;;5113093;28;20042;-78
2021/09/25 11:16:46;;;;;;;4.18;3.30;;;;;;;;;;5112408;28;20067;-79
2021/09/25 11:19:30;;;;;;;9.07;3.90;;;;;;;;;;5112597;28;20031;-79
2021/09/25 11:22:14;;;;;;;6.22;3.90;;;;;;;;;;5112103;28;20038;-79
2021/09/25 11:24:42;;;;;;;6.30;3.83;;;;;;;;;;5114596;28;20379;-78
2021/09/25 11:27:23;;;;;;;11.60;5.90;;;;;;;;;;5112287;28;20062;-77
2021/09/25 11:29:58;;;;;;;4.88;3.83;;;;;;;;;;5110399;28;20049;-77
2021/09/25 11:32:33;;;;;;;6.75;4.35;;;;;;;;;;5093218;28;20032;-77
2021/09/25 11:35:01;;;;;;;7.18;3.72;;;;;;;;;;5109451;28;20036;-77
2021/09/25 11:37:27;;;;;;;4.53;3.63;;;;;;;;;;5109349;28;20065;-77
2021/09/25 11:39:54;;;;;;;5.38;3.63;;;;;;;;;;5110204;28;20115;-77
2021/09/25 11:42:28;;;;;;;7.07;3.80;;;;;;;;;;5110429;28;20059;-77
2021/09/25 11:44:59;;;;;;;10.15;4.00;;;;;;;;;;5110020;28;20486;-77
2021/09/25 11:47:37;;;;;;;5.13;3.42;;;;;;;;;;5108758;28;20027;-77
2021/09/25 11:50:21;;;;;;;4.60;3.60;;;;;;;;;;5109724;28;20469;-77
2021/09/25 11:52:50;;;;;;;4.63;3.40;;;;;;;;;;5109638;28;20035;-77
2021/09/25 11:55:16;;;;;;;5.07;3.50;;;;;;;;;;5109846;28;20051;-77
2021/09/25 11:57:47;;;;;;;6.55;3.70;;;;;;;;;;5107508;28;20581;-77
2021/09/25 12:00:22;;;;;;;6.93;3.47;;;;;;;;;;5110785;28;20066;-78
2021/09/25 12:02:49;;;;;;;7.03;3.90;;;;;;;;;;5107600;28;20032;-77
2021/09/25 12:05:38;;;;;;;7.10;3.80;;;;;;;;;;5109942;28;20027;-76
2021/09/25 12:08:06;;;;;;;9.07;3.70;;;;;;;;;;5112711;28;20401;-78
2021/09/25 12:10:37;;;;;;;7.82;3.90;;;;;;;;;;5102013;28;20039;-78
2021/09/25 12:13:07;;;;;;;4.03;3.10;;;;;;;;;;5102906;28;20044;-79
2021/09/25 12:15:36;;;;;;;4.90;3.75;;;;;;;;;;5099238;28;20364;-77
2021/09/25 12:18:13;;;;;;;5.35;3.08;;;;;;;;;;5099492;28;20032;-78
2021/09/25 12:20:46;;;;;;;5.80;3.42;;;;;;;;;;5098544;28;20043;-77
2021/09/25 12:23:16;;;;;;;6.63;3.72;;;;;;;;;;5096938;28;20039;-77
2021/09/25 12:25:42;;;;;;;5.05;2.78;;;;;;;;;;5096294;28;20067;-76
2021/09/25 12:28:33;;;;;;;5.38;3.28;;;;;;;;;;5093295;28;20067;-77
2021/09/25 12:31:03;;;;;;;5.13;3.05;;;;;;;;;;5093967;28;20058;-77
2021/09/25 12:33:29;;;;;;;8.52;3.50;;;;;;;;;;5094124;28;20520;-76
2021/09/25 12:36:03;;;;;;;6.30;3.67;;;;;;;;;;5076971;28;20024;-76
2021/09/25 12:38:30;;;;;;;5.15;3.67;;;;;;;;;;5095148;28;20064;-76
2021/09/25 12:41:00;;;;;;;9.32;3.60;;;;;;;;;;5095130;28;20127;-77
2021/09/25 12:43:26;;;;;;;8.40;4.72;;;;;;;;;;5095284;28;20050;-76
2021/09/25 12:46:16;;;;;;;7.53;4.75;;;;;;;;;;5094054;28;20031;-77
2021/09/25 12:49:04;;;;;;;10.35;5.35;;;;;;;;;;5095154;28;20382;-77
2021/09/25 12:51:46;;;;;;;4.70;3.67;;;;;;;;;;5095929;28;20393;-76
2021/09/25 12:54:17;;;;;;;6.82;4.63;;;;;;;;;;5095336;28;20115;-75
2021/09/25 12:56:48;;;;;;;8.63;4.60;;;;;;;;;;5095529;28;20057;-78
2021/09/25 12:59:19;;;;;;;7.10;4.22;;;;;;;;;;5094300;28;20059;-78
2021/09/25 13:01:49;;;;;;;6.65;4.38;;;;;;;;;;5095098;28;20036;-76
2021/09/25 13:04:28;;;;;;;5.10;3.78;;;;;;;;;;5097077;28;20378;-77
2021/09/25 13:06:56;;;;;;;7.55;4.25;;;;;;;;;;5097404;28;20556;-78
2021/09/25 13:09:26;;;;;;;6.82;3.53;;;;;;;;;;5096892;28;20126;-78
2021/09/25 13:12:09;;;;;;;5.13;3.53;;;;;;;;;;5095396;28;20040;-77
2021/09/25 13:14:34;;;;;;;5.05;3.58;;;;;;;;;;5096489;28;20051;-79
2021/09/25 13:17:00;;;;;;;10.25;4.68;;;;;;;;;;5095245;28;20040;-78
2021/09/25 13:19:25;;;;;;;6.35;3.88;;;;;;;;;;5096215;28;20414;-78
2021/09/25 13:21:51;;;;;;;5.93;3.53;;;;;;;;;;5095969;28;20056;-77
2021/09/25 13:24:18;;;;;;;6.78;3.97;;;;;;;;;;5094332;28;20046;-77
2021/09/25 13:26:44;;;;;;;8.40;4.15;;;;;;;;;;5098157;28;20040;-79
2021/09/25 13:29:10;;;;;;;6.03;3.85;;;;;;;;;;5094501;28;20074;-77
2021/09/25 13:31:35;;;;;;;5.07;4.18;;;;;;;;;;5094670;28;20064;-76
2021/09/25 13:34:01;;;;;;;6.10;4.35;;;;;;;;;;5097598;28;20063;-77
2021/09/25 13:36:27;;;;;;;7.18;5.10;;;;;;;;;;5097626;28;20122;-80
2021/09/25 13:38:52;;;;;;;5.47;3.55;;;;;;;;;;5098717;28;20078;-79
2021/09/25 13:41:20;;;;;;;7.35;4.07;;;;;;;;;;5099150;28;20165;-79
2021/09/25 13:43:45;;;;;;;6.47;3.20;;;;;;;;;;5096735;28;20028;-79
2021/09/25 13:46:11;;;;;;;5.68;4.22;;;;;;;;;;5096169;28;20047;-78
2021/09/25 13:48:36;;;;;;;6.35;4.07;;;;;;;;;;5096320;28;20036;-80
2021/09/25 13:51:02;;;;;;;6.32;3.53;;;;;;;;;;5096581;28;20032;-79
2021/09/25 13:53:27;;;;;;;5.45;3.60;;;;;;;;;;5096084;28;20036;-80
2021/09/25 13:55:54;;;;;;;5.72;3.70;;;;;;;;;;5098142;28;20114;-79
2021/09/25 13:58:20;;;;;;;4.38;3.35;;;;;;;;;;5098547;28;20036;-79
2021/09/25 14:00:46;;;;;;;3.63;2.78;;;;;;;;;;5099207;28;20066;-81
2021/09/25 14:03:12;;;;;;;4.97;3.20;;;;;;;;;;5100284;28;20024;-76
2021/09/25 14:05:37;;;;;;;4.85;2.70;;;;;;;;;;5100254;28;20028;-78
2021/09/25 14:08:07;;;;;;;5.65;3.38;;;;;;;;;;5100982;28;20101;-78
2021/09/25 14:10:38;;;;;;;4.75;2.75;;;;;;;;;;5102781;28;20165;-78
2021/09/25 14:13:05;;;;;;;3.88;2.97;;;;;;;;;;5098408;28;20047;-77
2021/09/25 14:15:31;;;;;;;8.60;3.53;;;;;;;;;;5080085;28;20063;-77
2021/09/25 14:17:56;;;;;;;4.85;3.78;;;;;;;;;;5098266;28;20082;-77
2021/09/25 14:20:22;;;;;;;9.32;3.13;;;;;;;;;;5098369;28;20032;-78
2021/09/25 14:22:47;;;;;;;5.38;3.55;;;;;;;;;;5101023;28;20056;-78
2021/09/25 14:25:13;;;;;;;5.70;3.45;;;;;;;;;;5101800;28;20035;-79
2021/09/25 14:27:38;;;;;;;6.10;3.30;;;;;;;;;;5101814;28;20086;-78
2021/09/25 14:30:05;;;;;;;4.22;3.00;;;;;;;;;;5084639;28;20027;-79
2021/09/25 14:32:30;;;;;;;6.28;3.33;;;;;;;;;;5105093;28;20035;-78
2021/09/25 14:34:55;;;;;;;5.13;3.17;;;;;;;;;;5104432;28;20440;-78
2021/09/25 14:37:21;;;;;;;3.53;2.95;;;;;;;;;;5099243;28;20127;-77
2021/09/25 14:39:48;;;;;;;5.63;3.75;;;;;;;;;;5100412;28;20067;-78
2021/09/25 14:42:15;;;;;;;5.25;3.33;;;;;;;;;;5084070;28;20028;-79
2021/09/25 14:44:40;;;;;;;4.35;3.20;;;;;;;;;;5103630;28;20095;-79
2021/09/25 14:47:06;;;;;;;4.85;3.35;;;;;;;;;;5099758;28;20052;-78
2021/09/25 14:49:31;;;;;;;4.88;2.85;;;;;;;;;;5095490;28;20043;-80
2021/09/25 14:51:57;;;;;;;5.28;3.17;;;;;;;;;;5097230;28;20028;-79
2021/09/25 14:54:23;;;;;;;6.28;3.10;;;;;;;;;;5097279;28;20036;-78
2021/09/25 14:56:53;;;;;;;5.43;3.15;;;;;;;;;;5097139;28;20130;-78
2021/09/25 14:59:19;;;;;;;5.05;3.20;;;;;;;;;;5097426;28;20536;-79
2021/09/25 15:01:46;;;;;;;6.82;3.85;;;;;;;;;;5098246;28;20031;-78
2021/09/25 15:04:13;;;;;;;3.83;3.45;;;;;;;;;;5079552;28;20040;-78
2021/09/25 15:06:42;;;;;;;6.80;4.47;;;;;;;;;;5080533;28;20389;-77
2021/09/25 15:09:08;;;;;;;8.60;4.60;;;;;;;;;;5097149;28;20402;-80
2021/09/25 15:11:34;;;;;;;8.27;4.03;;;;;;;;;;5099166;28;20036;-80
2021/09/25 15:14:02;;;;;;;5.18;3.60;;;;;;;;;;5099421;28;20055;-80
2021/09/25 15:16:27;;;;;;;5.40;4.43;;;;;;;;;;5100539;28;20040;-78
2021/09/25 15:18:53;;;;;;;7.05;4.22;;;;;;;;;;5099954;28;20081;-78
2021/09/25 15:21:19;;;;;;;5.25;3.42;;;;;;;;;;5099961;28;20044;-80
2021/09/25 15:23:44;;;;;;;8.98;4.35;;;;;;;;;;5100282;28;20036;-80
2021/09/25 15:26:10;;;;;;;4.07;2.90;;;;;;;;;;5097185;28;20074;-78
2021/09/25 15:28:35;;;;;;;5.20;3.67;;;;;;;;;;5095045;28;20479;-80
2021/09/25 15:31:01;;;;;;;8.80;2.85;;;;;;;;;;5096695;28;20038;-78
2021/09/25 15:33:27;;;;;;;5.18;2.97;;;;;;;;;;5097670;28;20119;-80
2021/09/25 15:35:52;;;;;;;4.00;2.83;;;;;;;;;;5096859;28;20037;-78
2021/09/25 15:38:18;;;;;;;3.85;2.92;;;;;;;;;;5093961;28;20028;-80
2021/09/25 15:40:43;;;;;;;10.80;3.80;;;;;;;;;;5095106;28;20028;-83
2021/09/25 15:43:09;;;;;;;6.35;2.78;;;;;;;;;;5094779;28;20480;-79
2021/09/25 15:45:34;;;;;;;6.43;3.70;;;;;;;;;;5098987;28;20526;-79
2021/09/25 15:47:59;;;;;;;4.95;3.22;;;;;;;;;;5097259;28;20119;-80
2021/09/25 15:50:27;;;;;;;3.22;2.53;;;;;;;;;;5098556;28;20425;-80
2021/09/25 15:52:52;;;;;;;4.53;2.83;;;;;;;;;;5098803;28;20081;-80
2021/09/25 15:55:18;;;;;;;5.72;3.40;;;;;;;;;;5098245;28;20027;-80
2021/09/25 15:57:44;;;;;;;4.88;3.05;;;;;;;;;;5098704;28;20024;-80
2021/09/25 16:00:10;;;;;;;4.35;3.28;;;;;;;;;;5097030;28;20044;-79
2021/09/25 16:02:38;;;;;;;5.00;3.60;;;;;;;;;;5097532;28;20051;-79